createdAt,value
2017-11-18T00:00:58.124Z,0
2017-11-18T00:01:58.381Z,0
2017-11-18T00:02:58.441Z,0
2017-11-18T00:03:58.348Z,0
2017-11-18T00:04:58.362Z,0
2017-11-18T00:05:58.339Z,0
2017-11-18T00:06:58.290Z,0
2017-11-18T00:07:58.015Z,0
2017-11-18T00:08:57.709Z,0
2017-11-18T00:09:58.238Z,0
2017-11-18T00:10:58.499Z,0
2017-11-18T00:11:57.673Z,0
2017-11-18T00:12:58.200Z,0
2017-11-18T00:13:57.626Z,0
2017-11-18T00:14:58.163Z,0
2017-11-18T00:15:58.173Z,0
2017-11-18T00:16:57.871Z,0
2017-11-18T00:17:57.838Z,0
2017-11-18T00:18:57.547Z,0
2017-11-18T00:19:57.941Z,0
2017-11-18T00:20:58.094Z,0
2017-11-18T00:21:57.666Z,0
2017-11-18T00:22:57.774Z,0
2017-11-18T00:23:57.772Z,0
2017-11-18T00:24:57.731Z,0
2017-11-18T00:25:58.001Z,0
2017-11-18T00:26:57.419Z,0
2017-11-18T00:27:58.289Z,0
2017-11-18T00:28:57.397Z,0
2017-11-18T00:29:57.923Z,0
2017-11-18T00:30:57.911Z,0
2017-11-18T00:31:57.616Z,0
2017-11-18T00:32:57.603Z,0
2017-11-18T00:33:57.323Z,0
2017-11-18T00:34:57.864Z,0
2017-11-18T00:35:57.838Z,0
2017-11-18T00:36:57.541Z,0
2017-11-18T00:37:57.800Z,0
2017-11-18T00:38:57.518Z,0
2017-11-18T00:39:57.500Z,0
2017-11-18T00:40:57.724Z,0
2017-11-18T00:41:57.764Z,0
2017-11-18T00:42:57.727Z,0
2017-11-18T00:43:57.459Z,0
2017-11-18T00:44:57.185Z,0
2017-11-18T00:45:57.955Z,0
2017-11-18T00:46:57.382Z,0
2017-11-18T00:47:57.417Z,0
2017-11-18T00:48:57.082Z,0
2017-11-18T00:49:57.342Z,0
2017-11-18T00:50:57.316Z,0
2017-11-18T00:51:57.305Z,0
2017-11-18T00:52:57.010Z,0
2017-11-18T00:53:57.556Z,0
2017-11-18T00:54:57.542Z,0
2017-11-18T00:55:57.537Z,0
2017-11-18T00:56:57.235Z,0
2017-11-18T00:57:57.249Z,0
2017-11-18T00:58:57.244Z,0
2017-11-18T00:59:57.180Z,0
2017-11-18T01:00:57.455Z,0
2017-11-18T01:01:57.434Z,0
2017-11-18T01:02:57.150Z,0
2017-11-18T01:03:56.859Z,0
2017-11-18T01:04:57.125Z,0
2017-11-18T01:05:56.824Z,0
2017-11-18T01:06:57.344Z,0
2017-11-18T01:07:57.348Z,0
2017-11-18T01:08:57.050Z,0
2017-11-18T01:09:57.316Z,0
2017-11-18T01:10:57.007Z,0
2017-11-18T01:11:57.017Z,0
2017-11-18T01:12:57.182Z,0
2017-11-18T01:13:57.242Z,0
2017-11-18T01:14:57.787Z,0
2017-11-18T01:15:57.212Z,0
2017-11-18T01:16:56.637Z,0
2017-11-18T01:17:56.621Z,0
2017-11-18T01:18:56.890Z,0
2017-11-18T01:19:57.139Z,0
2017-11-18T01:20:56.848Z,0
2017-11-18T01:21:57.121Z,0
2017-11-18T01:22:57.371Z,0
2017-11-18T01:23:57.395Z,0
2017-11-18T01:24:57.064Z,0
2017-11-18T01:25:57.328Z,0
2017-11-18T01:26:56.494Z,0
2017-11-18T01:27:57.022Z,0
2017-11-18T01:28:57.288Z,0
2017-11-18T01:29:56.717Z,0
2017-11-18T01:30:56.432Z,0
2017-11-18T01:31:57.229Z,0
2017-11-18T01:32:57.216Z,0
2017-11-18T01:33:56.945Z,0
2017-11-18T01:34:56.638Z,0
2017-11-18T01:35:56.615Z,0
2017-11-18T01:36:57.191Z,0
2017-11-18T01:37:56.582Z,0
2017-11-18T01:38:56.314Z,0
2017-11-18T01:39:56.289Z,0
2017-11-18T01:40:56.843Z,0
2017-11-18T01:41:56.820Z,0
2017-11-18T01:42:56.515Z,0
2017-11-18T01:43:56.500Z,0
2017-11-18T01:44:56.480Z,0
2017-11-18T01:45:56.459Z,0
2017-11-18T01:46:56.735Z,0
2017-11-18T01:47:56.156Z,0
2017-11-18T01:48:56.686Z,0
2017-11-18T01:49:56.949Z,0
2017-11-18T01:50:56.124Z,0
2017-11-18T01:51:56.923Z,0
2017-11-18T01:52:56.624Z,0
2017-11-18T01:53:56.887Z,0
2017-11-18T01:54:56.878Z,0
2017-11-18T01:55:56.858Z,0
2017-11-18T01:56:56.286Z,0
2017-11-18T01:57:55.994Z,0
2017-11-18T01:58:56.548Z,0
2017-11-18T01:59:56.513Z,0
2017-11-18T02:00:56.511Z,0
2017-11-18T02:01:56.490Z,0
2017-11-18T02:02:56.744Z,0
2017-11-18T02:03:56.956Z,0
2017-11-18T02:04:56.206Z,0
2017-11-18T02:05:56.150Z,0
2017-11-18T02:06:56.165Z,0
2017-11-18T02:07:55.857Z,0
2017-11-18T02:08:56.098Z,0
2017-11-18T02:09:56.369Z,0
2017-11-18T02:10:56.076Z,0
2017-11-18T02:11:56.066Z,0
2017-11-18T02:12:56.600Z,0
2017-11-18T02:13:56.293Z,0
2017-11-18T02:14:56.005Z,0
2017-11-18T02:15:56.291Z,0
2017-11-18T02:16:56.556Z,0
2017-11-18T02:17:56.544Z,0
2017-11-18T02:18:55.945Z,0
2017-11-18T02:19:55.934Z,0
2017-11-18T02:20:56.194Z,0
2017-11-18T02:21:56.179Z,0
2017-11-18T02:22:55.910Z,0
2017-11-18T02:23:55.867Z,0
2017-11-18T02:24:56.128Z,0
2017-11-18T02:25:56.111Z,0
2017-11-18T02:26:55.814Z,0
2017-11-18T02:27:56.362Z,0
2017-11-18T02:28:56.072Z,0
2017-11-18T02:29:56.078Z,0
2017-11-18T02:30:55.758Z,0
2017-11-18T02:31:55.753Z,0
2017-11-18T02:32:56.012Z,0
2017-11-18T02:33:56.260Z,0
2017-11-18T02:34:55.694Z,0
2017-11-18T02:35:55.960Z,0
2017-11-18T02:36:55.963Z,0
2017-11-18T02:37:56.201Z,0
2017-11-18T02:38:55.944Z,0
2017-11-18T02:39:55.613Z,0
2017-11-18T02:40:55.890Z,0
2017-11-18T02:41:56.150Z,0
2017-11-18T02:42:55.580Z,0
2017-11-18T02:43:55.561Z,0
2017-11-18T02:44:56.121Z,0
2017-11-18T02:45:55.819Z,0
2017-11-18T02:46:55.530Z,0
2017-11-18T02:47:55.531Z,0
2017-11-18T02:48:55.790Z,0
2017-11-18T02:49:55.202Z,0
2017-11-18T02:50:55.737Z,0
2017-11-18T02:51:55.717Z,0
2017-11-18T02:52:55.410Z,0
2017-11-18T02:53:55.725Z,0
2017-11-18T02:54:55.380Z,0
2017-11-18T02:55:55.109Z,0
2017-11-18T02:56:55.671Z,0
2017-11-18T02:57:55.905Z,0
2017-11-18T02:58:55.323Z,0
2017-11-18T02:59:55.312Z,0
2017-11-18T03:00:55.576Z,0
2017-11-18T03:01:55.281Z,0
2017-11-18T03:02:55.258Z,0
2017-11-18T03:03:55.238Z,0
2017-11-18T03:04:54.945Z,0
2017-11-18T03:05:55.496Z,0
2017-11-18T03:06:55.217Z,0
2017-11-18T03:07:54.920Z,0
2017-11-18T03:08:55.158Z,0
2017-11-18T03:09:54.882Z,0
2017-11-18T03:10:54.854Z,0
2017-11-18T03:11:55.117Z,0
2017-11-18T03:12:55.380Z,0
2017-11-18T03:13:55.083Z,0
2017-11-18T03:14:54.792Z,0
2017-11-18T03:15:55.358Z,0
2017-11-18T03:16:55.054Z,0
2017-11-18T03:17:55.029Z,0
2017-11-18T03:18:55.034Z,0
2017-11-18T03:19:54.990Z,0
2017-11-18T03:20:55.259Z,0
2017-11-18T03:21:55.233Z,0
2017-11-18T03:22:55.224Z,0
2017-11-18T03:23:55.210Z,0
2017-11-18T03:24:54.909Z,0
2017-11-18T03:25:55.176Z,0
2017-11-18T03:26:54.625Z,0
2017-11-18T03:27:55.416Z,0
2017-11-18T03:28:54.577Z,0
2017-11-18T03:29:55.109Z,0
2017-11-18T03:30:56.278Z,0
2017-11-18T03:31:54.811Z,0
2017-11-18T03:32:54.790Z,0
2017-11-18T03:33:55.048Z,0
2017-11-18T03:34:54.764Z,0
2017-11-18T03:35:54.740Z,0
2017-11-18T03:36:54.738Z,0
2017-11-18T03:37:55.000Z,0
2017-11-18T03:38:54.719Z,0
2017-11-18T03:39:54.430Z,0
2017-11-18T03:40:54.949Z,0
2017-11-18T03:41:54.929Z,0
2017-11-18T03:42:54.958Z,0
2017-11-18T03:43:54.894Z,0
2017-11-18T03:44:54.619Z,0
2017-11-18T03:45:54.308Z,0
2017-11-18T03:46:54.569Z,0
2017-11-18T03:47:54.840Z,0
2017-11-18T03:48:54.575Z,0
2017-11-18T03:49:54.824Z,0
2017-11-18T03:50:55.061Z,0
2017-11-18T03:51:54.506Z,0
2017-11-18T03:52:55.037Z,0
2017-11-18T03:53:55.014Z,0
2017-11-18T03:54:54.723Z,0
2017-11-18T03:55:54.982Z,0
2017-11-18T03:56:54.966Z,0
2017-11-18T03:57:54.955Z,0
2017-11-18T03:58:54.394Z,0
2017-11-18T03:59:54.656Z,0
2017-11-18T04:00:54.357Z,0
2017-11-18T04:01:54.629Z,0
2017-11-18T04:02:54.061Z,0
2017-11-18T04:03:54.607Z,0
2017-11-18T04:04:54.897Z,0
2017-11-18T04:05:54.268Z,0
2017-11-18T04:06:54.273Z,0
2017-11-18T04:07:54.254Z,0
2017-11-18T04:08:54.782Z,0
2017-11-18T04:09:54.212Z,0
2017-11-18T04:10:54.478Z,0
2017-11-18T04:11:54.486Z,0
2017-11-18T04:12:53.885Z,0
2017-11-18T04:13:54.175Z,0
2017-11-18T04:14:54.449Z,0
2017-11-18T04:15:54.129Z,0
2017-11-18T04:16:54.096Z,0
2017-11-18T04:17:54.083Z,0
2017-11-18T04:18:54.067Z,0
2017-11-18T04:19:54.348Z,0
2017-11-18T04:20:54.334Z,0
2017-11-18T04:21:54.307Z,0
2017-11-18T04:22:54.557Z,0
2017-11-18T04:23:54.260Z,0
2017-11-18T04:24:54.254Z,0
2017-11-18T04:25:54.531Z,0
2017-11-18T04:26:53.951Z,0
2017-11-18T04:27:53.917Z,0
2017-11-18T04:28:53.912Z,0
2017-11-18T04:29:54.187Z,0
2017-11-18T04:30:54.165Z,0
2017-11-18T04:31:54.424Z,0
2017-11-18T04:32:54.129Z,0
2017-11-18T04:33:53.547Z,0
2017-11-18T04:34:54.103Z,0
2017-11-18T04:35:54.095Z,0
2017-11-18T04:36:54.072Z,0
2017-11-18T04:37:53.772Z,0
2017-11-18T04:38:54.030Z,0
2017-11-18T04:39:54.028Z,0
2017-11-18T04:40:53.992Z,0
2017-11-18T04:41:54.009Z,0
2017-11-18T04:42:53.685Z,0
2017-11-18T04:43:53.945Z,0
2017-11-18T04:44:53.926Z,0
2017-11-18T04:45:53.641Z,0
2017-11-18T04:46:54.171Z,0
2017-11-18T04:47:54.162Z,0
2017-11-18T04:48:54.145Z,0
2017-11-18T04:49:53.299Z,0
2017-11-18T04:50:53.551Z,0
2017-11-18T04:51:53.535Z,0
2017-11-18T04:52:53.554Z,0
2017-11-18T04:53:53.506Z,0
2017-11-18T04:54:53.776Z,0
2017-11-18T04:55:53.481Z,0
2017-11-18T04:56:53.737Z,0
2017-11-18T04:57:53.752Z,0
2017-11-18T04:58:53.149Z,0
2017-11-18T04:59:53.699Z,0
2017-11-18T05:00:53.137Z,0
2017-11-18T05:01:53.122Z,0
2017-11-18T05:02:53.353Z,0
2017-11-18T05:03:53.352Z,0
2017-11-18T05:04:53.890Z,0
2017-11-18T05:05:53.312Z,0
2017-11-18T05:06:53.302Z,0
2017-11-18T05:07:53.557Z,0
2017-11-18T05:08:53.537Z,0
2017-11-18T05:09:53.242Z,0
2017-11-18T05:10:53.527Z,0
2017-11-18T05:11:53.487Z,0
2017-11-18T05:12:53.194Z,0
2017-11-18T05:13:53.479Z,0
2017-11-18T05:14:53.722Z,0
2017-11-18T05:15:53.712Z,0
2017-11-18T05:16:53.128Z,0
2017-11-18T05:17:53.113Z,0
2017-11-18T05:18:53.110Z,0
2017-11-18T05:19:53.077Z,0
2017-11-18T05:20:53.349Z,0
2017-11-18T05:21:53.681Z,0
2017-11-18T05:22:53.901Z,0
2017-11-18T05:23:53.332Z,0
2017-11-18T05:24:52.728Z,0
2017-11-18T05:25:53.265Z,0
2017-11-18T05:26:52.992Z,0
2017-11-18T05:27:53.245Z,0
2017-11-18T05:28:52.942Z,0
2017-11-18T05:29:53.488Z,0
2017-11-18T05:30:52.901Z,0
2017-11-18T05:31:53.721Z,0
2017-11-18T05:32:52.875Z,0
2017-11-18T05:33:53.192Z,0
2017-11-18T05:34:53.131Z,0
2017-11-18T05:35:52.564Z,0
2017-11-18T05:36:52.806Z,0
2017-11-18T05:37:52.808Z,0
2017-11-18T05:38:52.795Z,0
2017-11-18T05:39:52.758Z,0
2017-11-18T05:40:52.481Z,0
2017-11-18T05:41:52.454Z,0
2017-11-18T05:42:52.715Z,0
2017-11-18T05:43:52.978Z,0
2017-11-18T05:44:52.440Z,0
2017-11-18T05:45:52.390Z,0
2017-11-18T05:46:52.940Z,0
2017-11-18T05:47:52.648Z,0
2017-11-18T05:48:52.614Z,0
2017-11-18T05:49:52.611Z,0
2017-11-18T05:50:52.591Z,0
2017-11-18T05:51:52.848Z,0
2017-11-18T05:52:52.279Z,0
2017-11-18T05:53:53.088Z,0
2017-11-18T05:54:52.244Z,0
2017-11-18T05:55:52.801Z,0
2017-11-18T05:56:52.784Z,0
2017-11-18T05:57:52.761Z,0
2017-11-18T05:58:52.752Z,0
2017-11-18T05:59:52.193Z,0
2017-11-18T06:00:52.718Z,0
2017-11-18T06:01:52.399Z,0
2017-11-18T06:02:52.106Z,0
2017-11-18T06:03:52.654Z,0
2017-11-18T06:04:52.929Z,0
2017-11-18T06:05:52.649Z,0
2017-11-18T06:06:52.876Z,0
2017-11-18T06:07:52.612Z,0
2017-11-18T06:08:52.577Z,0
2017-11-18T06:09:52.579Z,0
2017-11-18T06:10:52.534Z,0
2017-11-18T06:11:52.239Z,0
2017-11-18T06:12:52.222Z,0
2017-11-18T06:13:52.236Z,0
2017-11-18T06:14:51.939Z,0
2017-11-18T06:15:52.482Z,0
2017-11-18T06:16:52.714Z,0
2017-11-18T06:17:52.445Z,0
2017-11-18T06:18:52.398Z,0
2017-11-18T06:19:52.681Z,0
2017-11-18T06:20:52.111Z,0
2017-11-18T06:21:52.084Z,0
2017-11-18T06:22:52.058Z,0
2017-11-18T06:23:52.320Z,0
2017-11-18T06:24:52.303Z,0
2017-11-18T06:25:52.340Z,0
2017-11-18T06:26:52.827Z,0
2017-11-18T06:27:51.980Z,0
2017-11-18T06:28:51.693Z,0
2017-11-18T06:29:52.245Z,5
2017-11-18T06:30:52.221Z,5
2017-11-18T06:31:52.468Z,5
2017-11-18T06:32:51.896Z,5
2017-11-18T06:33:52.197Z,5
2017-11-18T06:34:51.913Z,5
2017-11-18T06:35:51.847Z,5
2017-11-18T06:36:52.393Z,5
2017-11-18T06:37:51.832Z,5
2017-11-18T06:38:51.846Z,10
2017-11-18T06:39:51.565Z,10
2017-11-18T06:40:52.372Z,10
2017-11-18T06:41:51.754Z,10
2017-11-18T06:42:52.026Z,15
2017-11-18T06:43:52.009Z,15
2017-11-18T06:44:51.989Z,15
2017-11-18T06:45:51.969Z,15
2017-11-18T06:46:52.498Z,20
2017-11-18T06:47:52.203Z,20
2017-11-18T06:48:52.187Z,20
2017-11-18T06:49:52.206Z,20
2017-11-18T06:50:51.880Z,20
2017-11-18T06:51:51.341Z,25
2017-11-18T06:52:52.147Z,25
2017-11-18T06:53:51.843Z,25
2017-11-18T06:54:51.260Z,25
2017-11-18T06:55:51.535Z,25
2017-11-18T06:56:51.800Z,30
2017-11-18T06:57:51.776Z,30
2017-11-18T06:58:52.040Z,30
2017-11-18T06:59:51.454Z,35
2017-11-18T07:00:51.459Z,35
2017-11-18T07:01:51.422Z,35
2017-11-18T07:02:51.149Z,35
2017-11-18T07:03:51.401Z,35
2017-11-18T07:04:51.663Z,35
2017-11-18T07:05:51.083Z,35
2017-11-18T07:06:51.079Z,35
2017-11-18T07:07:51.326Z,35
2017-11-18T07:08:51.865Z,40
2017-11-18T07:09:51.288Z,40
2017-11-18T07:10:51.546Z,40
2017-11-18T07:11:50.979Z,40
2017-11-18T07:12:51.515Z,40
2017-11-18T07:13:51.501Z,40
2017-11-18T07:14:50.945Z,45
2017-11-18T07:15:51.187Z,45
2017-11-18T07:16:51.464Z,50
2017-11-18T07:17:51.162Z,55
2017-11-18T07:18:51.418Z,55
2017-11-18T07:19:51.400Z,55
2017-11-18T07:20:51.388Z,60
2017-11-18T07:21:51.097Z,60
2017-11-18T07:22:51.347Z,60
2017-11-18T07:23:51.055Z,65
2017-11-18T07:24:51.077Z,65
2017-11-18T07:25:50.744Z,65
2017-11-18T07:26:51.314Z,65
2017-11-18T07:27:51.281Z,70
2017-11-18T07:28:51.324Z,70
2017-11-18T07:29:51.244Z,70
2017-11-18T07:30:50.659Z,70
2017-11-18T07:31:51.207Z,70
2017-11-18T07:32:50.946Z,70
2017-11-18T07:33:50.889Z,75
2017-11-18T07:34:50.876Z,75
2017-11-18T07:35:50.855Z,75
2017-11-18T07:36:51.433Z,75
2017-11-18T07:37:51.138Z,75
2017-11-18T07:38:51.387Z,75
2017-11-18T07:39:51.082Z,75
2017-11-18T07:40:50.494Z,75
2017-11-18T07:41:50.481Z,75
2017-11-18T07:42:51.313Z,75
2017-11-18T07:43:50.723Z,75
2017-11-18T07:44:50.983Z,75
2017-11-18T07:45:51.240Z,80
2017-11-18T07:46:50.684Z,80
2017-11-18T07:47:50.955Z,80
2017-11-18T07:48:50.363Z,85
2017-11-18T07:49:50.347Z,80
2017-11-18T07:50:50.630Z,85
2017-11-18T07:51:50.594Z,85
2017-11-18T07:52:50.326Z,85
2017-11-18T07:53:50.560Z,85
2017-11-18T07:54:51.124Z,85
2017-11-18T07:55:50.251Z,85
2017-11-18T07:56:51.368Z,90
2017-11-18T07:57:50.493Z,90
2017-11-18T07:58:50.474Z,90
2017-11-18T07:59:50.742Z,90
2017-11-18T08:00:50.445Z,90
2017-11-18T08:01:50.734Z,90
2017-11-18T08:02:50.697Z,95
2017-11-18T08:03:50.405Z,90
2017-11-18T08:04:50.109Z,95
2017-11-18T08:05:50.637Z,90
2017-11-18T08:06:50.635Z,90
2017-11-18T08:07:50.329Z,85
2017-11-18T08:08:50.318Z,85
2017-11-18T08:09:50.022Z,85
2017-11-18T08:10:50.870Z,90
2017-11-18T08:11:50.267Z,90
2017-11-18T08:12:51.012Z,90
2017-11-18T08:13:50.266Z,90
2017-11-18T08:14:50.511Z,95
2017-11-18T08:15:50.514Z,95
2017-11-18T08:16:50.182Z,100
2017-11-18T08:17:51.029Z,90
2017-11-18T08:18:50.427Z,85
2017-11-18T08:19:50.438Z,85
2017-11-18T08:20:50.122Z,85
2017-11-18T08:21:50.120Z,90
2017-11-18T08:22:50.413Z,95
2017-11-18T08:23:50.094Z,95
2017-11-18T08:24:50.077Z,105
2017-11-18T08:25:50.039Z,105
2017-11-18T08:26:50.064Z,100
2017-11-18T08:27:50.009Z,105
2017-11-18T08:28:50.268Z,105
2017-11-18T08:29:50.254Z,105
2017-11-18T08:30:50.237Z,110
2017-11-18T08:31:50.540Z,115
2017-11-18T08:32:49.672Z,115
2017-11-18T08:33:50.196Z,120
2017-11-18T08:34:50.171Z,120
2017-11-18T08:35:49.885Z,125
2017-11-18T08:36:50.150Z,135
2017-11-18T08:37:49.849Z,130
2017-11-18T08:38:50.112Z,130
2017-11-18T08:39:50.433Z,130
2017-11-18T08:40:49.821Z,125
2017-11-18T08:41:50.334Z,125
2017-11-18T08:42:49.513Z,130
2017-11-18T08:43:50.033Z,130
2017-11-18T08:44:49.741Z,130
2017-11-18T08:45:50.016Z,125
2017-11-18T08:46:50.301Z,135
2017-11-18T08:47:49.972Z,135
2017-11-18T08:48:49.440Z,145
2017-11-18T08:49:49.972Z,140
2017-11-18T08:50:49.946Z,140
2017-11-18T08:51:50.513Z,140
2017-11-18T08:52:49.483Z,135
2017-11-18T08:53:49.620Z,135
2017-11-18T08:54:49.306Z,140
2017-11-18T08:55:50.118Z,135
2017-11-18T08:56:51.742Z,135
2017-11-18T08:57:50.411Z,135
2017-11-18T08:58:49.824Z,135
2017-11-18T08:59:49.522Z,140
2017-11-18T09:00:49.222Z,125
2017-11-18T09:01:49.748Z,115
2017-11-18T09:02:49.462Z,105
2017-11-18T09:03:50.009Z,105
2017-11-18T09:04:49.473Z,120
2017-11-18T09:05:49.133Z,125
2017-11-18T09:06:49.393Z,120
2017-11-18T09:07:49.663Z,120
2017-11-18T09:08:49.366Z,130
2017-11-18T09:09:49.625Z,135
2017-11-18T09:10:50.159Z,130
2017-11-18T09:11:49.596Z,135
2017-11-18T09:12:49.022Z,140
2017-11-18T09:13:49.030Z,145
2017-11-18T09:14:49.289Z,135
2017-11-18T09:15:48.995Z,135
2017-11-18T09:16:49.799Z,135
2017-11-18T09:17:49.240Z,140
2017-11-18T09:18:49.207Z,150
2017-11-18T09:19:49.797Z,150
2017-11-18T09:20:49.451Z,150
2017-11-18T09:21:48.932Z,150
2017-11-18T09:22:49.143Z,150
2017-11-18T09:23:48.852Z,140
2017-11-18T09:24:48.856Z,135
2017-11-18T09:25:48.827Z,130
2017-11-18T09:26:49.648Z,135
2017-11-18T09:27:49.628Z,115
2017-11-18T09:28:49.051Z,95
2017-11-18T09:29:49.312Z,95
2017-11-18T09:30:49.044Z,100
2017-11-18T09:31:49.285Z,80
2017-11-18T09:32:48.990Z,80
2017-11-18T09:33:48.980Z,70
2017-11-18T09:34:48.961Z,70
2017-11-18T09:35:49.236Z,80
2017-11-18T09:36:48.943Z,70
2017-11-18T09:37:48.909Z,100
2017-11-18T09:38:49.443Z,100
2017-11-18T09:39:49.168Z,115
2017-11-18T09:40:49.151Z,140
2017-11-18T09:41:49.153Z,145
2017-11-18T09:42:48.850Z,140
2017-11-18T09:43:48.819Z,140
2017-11-18T09:44:48.811Z,135
2017-11-18T09:45:48.785Z,135
2017-11-18T09:46:48.783Z,135
2017-11-18T09:47:49.044Z,135
2017-11-18T09:48:48.748Z,130
2017-11-18T09:49:49.012Z,100
2017-11-18T09:50:49.281Z,95
2017-11-18T09:51:48.417Z,120
2017-11-18T09:52:48.993Z,110
2017-11-18T09:53:48.405Z,85
2017-11-18T09:54:48.375Z,75
2017-11-18T09:55:48.627Z,105
2017-11-18T09:56:48.911Z,75
2017-11-18T09:57:48.902Z,65
2017-11-18T09:58:48.329Z,125
2017-11-18T09:59:48.587Z,185
2017-11-18T10:00:48.579Z,160
2017-11-18T10:01:48.558Z,150
2017-11-18T10:02:48.803Z,130
2017-11-18T10:03:48.797Z,110
2017-11-18T10:04:48.769Z,120
2017-11-18T10:05:48.475Z,105
2017-11-18T10:06:48.476Z,100
2017-11-18T10:07:48.722Z,105
2017-11-18T10:08:48.188Z,120
2017-11-18T10:09:48.695Z,175
2017-11-18T10:10:48.971Z,145
2017-11-18T10:11:48.673Z,150
2017-11-18T10:12:48.658Z,140
2017-11-18T10:13:48.673Z,120
2017-11-18T10:14:48.909Z,100
2017-11-18T10:15:48.325Z,90
2017-11-18T10:16:48.334Z,95
2017-11-18T10:17:48.603Z,80
2017-11-18T10:18:48.279Z,70
2017-11-18T10:19:49.117Z,70
2017-11-18T10:20:47.970Z,105
2017-11-18T10:21:48.245Z,165
2017-11-18T10:22:48.556Z,185
2017-11-18T10:23:48.204Z,180
2017-11-18T10:24:48.501Z,180
2017-11-18T10:25:48.456Z,185
2017-11-18T10:26:48.185Z,180
2017-11-18T10:27:48.430Z,185
2017-11-18T10:28:48.413Z,185
2017-11-18T10:29:48.163Z,160
2017-11-18T10:30:48.138Z,135
2017-11-18T10:31:48.355Z,140
2017-11-18T10:32:47.789Z,155
2017-11-18T10:33:48.327Z,160
2017-11-18T10:34:48.042Z,175
2017-11-18T10:35:48.294Z,185
2017-11-18T10:36:48.031Z,180
2017-11-18T10:37:47.731Z,175
2017-11-18T10:38:47.969Z,145
2017-11-18T10:39:47.977Z,150
2017-11-18T10:40:47.973Z,180
2017-11-18T10:41:47.925Z,180
2017-11-18T10:42:48.200Z,170
2017-11-18T10:43:48.202Z,150
2017-11-18T10:44:47.895Z,145
2017-11-18T10:45:48.146Z,155
2017-11-18T10:46:48.399Z,165
2017-11-18T10:47:47.845Z,170
2017-11-18T10:48:47.821Z,165
2017-11-18T10:49:47.835Z,140
2017-11-18T10:50:48.338Z,135
2017-11-18T10:51:47.517Z,150
2017-11-18T10:52:48.045Z,145
2017-11-18T10:53:48.015Z,170
2017-11-18T10:54:48.008Z,175
2017-11-18T10:55:47.985Z,185
2017-11-18T10:56:47.427Z,195
2017-11-18T10:57:47.962Z,190
2017-11-18T10:58:47.937Z,170
2017-11-18T10:59:47.931Z,160
2017-11-18T11:00:47.932Z,155
2017-11-18T11:01:47.636Z,160
2017-11-18T11:02:47.931Z,160
2017-11-18T11:03:47.596Z,140
2017-11-18T11:04:47.299Z,130
2017-11-18T11:05:47.560Z,150
2017-11-18T11:06:47.833Z,155
2017-11-18T11:07:47.529Z,125
2017-11-18T11:09:19.305Z,110
2017-11-18T11:09:47.772Z,100
2017-11-18T11:10:48.036Z,105
2017-11-18T11:12:19.815Z,115
2017-11-18T11:12:47.749Z,115
2017-11-18T11:13:47.441Z,120
2017-11-18T11:14:47.711Z,135
2017-11-18T11:15:47.701Z,145
2017-11-18T11:16:47.661Z,110
2017-11-18T11:17:47.096Z,100
2017-11-18T11:18:47.653Z,110
2017-11-18T11:19:47.373Z,135
2017-11-18T11:21:19.667Z,125
2017-11-18T11:21:47.588Z,115
2017-11-18T11:22:47.847Z,105
2017-11-18T11:23:47.313Z,95
2017-11-18T11:24:47.285Z,100
2017-11-18T11:25:47.299Z,80
2017-11-18T11:26:47.231Z,70
2017-11-18T11:27:47.148Z,70
2017-11-18T11:28:47.204Z,65
2017-11-18T11:29:47.464Z,65
2017-11-18T11:30:46.906Z,70
2017-11-18T11:31:47.730Z,80
2017-11-18T11:32:47.438Z,95
2017-11-18T11:33:47.125Z,80
2017-11-18T11:34:47.132Z,65
2017-11-18T11:35:47.092Z,65
2017-11-18T11:36:47.358Z,70
2017-11-18T11:37:47.340Z,80
2017-11-18T11:38:47.369Z,65
2017-11-18T11:39:46.780Z,70
2017-11-18T11:40:47.292Z,95
2017-11-18T11:41:46.998Z,100
2017-11-18T11:42:47.290Z,80
2017-11-18T11:43:46.698Z,65
2017-11-18T11:44:47.237Z,55
2017-11-18T11:45:47.213Z,55
2017-11-18T11:46:46.922Z,55
2017-11-18T11:47:47.780Z,50
2017-11-18T11:48:47.206Z,65
2017-11-18T11:49:47.195Z,95
2017-11-18T11:50:46.599Z,110
2017-11-18T11:51:46.859Z,90
2017-11-18T11:52:47.114Z,70
2017-11-18T11:53:47.110Z,65
2017-11-18T11:54:46.801Z,70
2017-11-18T11:55:47.096Z,75
2017-11-18T11:56:47.042Z,100
2017-11-18T11:57:46.747Z,80
2017-11-18T11:58:47.320Z,85
2017-11-18T11:59:46.457Z,85
2017-11-18T12:00:47.249Z,105
2017-11-18T12:01:46.695Z,105
2017-11-18T12:02:46.679Z,100
2017-11-18T12:03:46.652Z,120
2017-11-18T12:04:46.914Z,135
2017-11-18T12:05:46.896Z,140
2017-11-18T12:06:46.327Z,120
2017-11-18T12:07:46.594Z,100
2017-11-18T12:08:46.569Z,95
2017-11-18T12:09:46.561Z,85
2017-11-18T12:10:47.116Z,80
2017-11-18T12:11:46.539Z,85
2017-11-18T12:12:46.509Z,90
2017-11-18T12:13:46.489Z,90
2017-11-18T12:14:46.793Z,85
2017-11-18T12:15:46.767Z,85
2017-11-18T12:16:46.441Z,95
2017-11-18T12:17:46.710Z,90
2017-11-18T12:18:46.699Z,85
2017-11-18T12:19:46.397Z,85
2017-11-18T12:20:46.430Z,75
2017-11-18T12:21:46.366Z,80
2017-11-18T12:22:46.913Z,80
2017-11-18T12:23:46.911Z,80
2017-11-18T12:24:46.038Z,70
2017-11-18T12:25:46.869Z,80
2017-11-18T12:26:46.555Z,85
2017-11-18T12:27:46.541Z,95
2017-11-18T12:28:46.255Z,120
2017-11-18T12:29:46.806Z,145
2017-11-18T12:30:46.516Z,135
2017-11-18T12:31:46.480Z,125
2017-11-18T12:32:46.503Z,110
2017-11-18T12:33:46.734Z,100
2017-11-18T12:34:45.877Z,115
2017-11-18T12:35:46.137Z,115
2017-11-18T12:36:45.864Z,120
2017-11-18T12:37:46.099Z,95
2017-11-18T12:38:46.369Z,85
2017-11-18T12:39:46.071Z,80
2017-11-18T12:40:46.058Z,70
2017-11-18T12:41:45.761Z,65
2017-11-18T12:42:46.301Z,70
2017-11-18T12:43:46.566Z,55
2017-11-18T12:44:45.736Z,50
2017-11-18T12:45:46.252Z,50
2017-11-18T12:46:45.966Z,50
2017-11-18T12:47:45.954Z,60
2017-11-18T12:48:46.210Z,75
2017-11-18T12:49:45.916Z,80
2017-11-18T12:50:45.905Z,110
2017-11-18T12:51:45.600Z,115
2017-11-18T12:52:45.861Z,100
2017-11-18T12:53:46.681Z,75
2017-11-18T12:54:45.556Z,65
2017-11-18T12:55:45.538Z,60
2017-11-18T12:56:45.797Z,70
2017-11-18T12:57:45.795Z,65
2017-11-18T12:58:46.056Z,60
2017-11-18T12:59:46.027Z,55
2017-11-18T13:00:46.016Z,55
2017-11-18T13:01:45.717Z,85
2017-11-18T13:02:45.457Z,135
2017-11-18T13:03:45.688Z,140
2017-11-18T13:04:45.670Z,135
2017-11-18T13:05:45.940Z,125
2017-11-18T13:06:45.921Z,100
2017-11-18T13:07:45.344Z,100
2017-11-18T13:08:45.879Z,95
2017-11-18T13:09:45.869Z,90
2017-11-18T13:10:45.299Z,85
2017-11-18T13:11:45.588Z,90
2017-11-18T13:12:45.539Z,90
2017-11-18T13:13:46.378Z,75
2017-11-18T13:14:46.080Z,70
2017-11-18T13:15:45.768Z,75
2017-11-18T13:16:46.079Z,75
2017-11-18T13:17:45.188Z,70
2017-11-18T13:18:45.171Z,65
2017-11-18T13:19:45.717Z,60
2017-11-18T13:20:45.994Z,55
2017-11-18T13:21:45.690Z,50
2017-11-18T13:22:45.390Z,35
2017-11-18T13:23:45.089Z,40
2017-11-18T13:24:45.074Z,45
2017-11-18T13:25:45.363Z,40
2017-11-18T13:26:45.594Z,30
2017-11-18T13:27:45.042Z,30
2017-11-18T13:28:45.007Z,20
2017-11-18T13:29:45.547Z,20
2017-11-18T13:30:45.828Z,20
2017-11-18T13:31:44.960Z,25
2017-11-18T13:32:45.228Z,20
2017-11-18T13:33:44.951Z,20
2017-11-18T13:34:44.923Z,15
2017-11-18T13:35:45.459Z,15
2017-11-18T13:36:45.156Z,15
2017-11-18T13:37:45.144Z,15
2017-11-18T13:38:44.849Z,15
2017-11-18T13:39:45.394Z,15
2017-11-18T13:40:45.656Z,15
2017-11-18T13:41:45.351Z,25
2017-11-18T13:42:45.355Z,35
2017-11-18T13:43:45.361Z,45
2017-11-18T13:44:45.915Z,65
2017-11-18T13:45:45.009Z,55
2017-11-18T13:46:45.266Z,50
2017-11-18T13:47:45.250Z,65
2017-11-18T13:48:45.240Z,65
2017-11-18T13:49:45.498Z,55
2017-11-18T13:50:44.927Z,45
2017-11-18T13:51:45.195Z,50
2017-11-18T13:52:44.616Z,45
2017-11-18T13:53:45.172Z,40
2017-11-18T13:54:45.173Z,60
2017-11-18T13:55:44.569Z,65
2017-11-18T13:56:45.385Z,70
2017-11-18T13:57:45.086Z,65
2017-11-18T13:58:45.093Z,70
2017-11-18T13:59:44.780Z,70
2017-11-18T14:00:44.774Z,70
2017-11-18T14:01:45.025Z,65
2017-11-18T14:02:44.745Z,60
2017-11-18T14:03:44.761Z,65
2017-11-18T14:04:44.693Z,65
2017-11-18T14:05:44.710Z,50
2017-11-18T14:06:44.665Z,45
2017-11-18T14:07:44.664Z,45
2017-11-18T14:08:45.490Z,45
2017-11-18T14:09:44.898Z,35
2017-11-18T14:10:45.161Z,30
2017-11-18T14:11:44.893Z,40
2017-11-18T14:12:44.293Z,30
2017-11-18T14:13:44.861Z,30
2017-11-18T14:14:44.844Z,30
2017-11-18T14:15:44.804Z,25
2017-11-18T14:16:44.518Z,20
2017-11-18T14:17:44.236Z,20
2017-11-18T14:18:44.742Z,15
2017-11-18T14:19:44.469Z,15
2017-11-18T14:20:44.486Z,25
2017-11-18T14:21:44.155Z,25
2017-11-18T14:22:44.679Z,15